createdAt,value
2017-09-16T00:01:00.326Z,9.80
2017-09-16T00:03:27.830Z,9.70
2017-09-16T00:05:55.326Z,9.70
2017-09-16T00:08:22.814Z,9.60
2017-09-16T00:10:50.318Z,9.60
2017-09-16T00:13:17.816Z,9.60
2017-09-16T00:15:45.322Z,9.60
2017-09-16T00:18:12.810Z,9.60
2017-09-16T00:20:40.319Z,9.60
2017-09-16T00:23:07.807Z,9.50
2017-09-16T00:25:35.337Z,9.50
2017-09-16T00:28:02.826Z,9.50
2017-09-16T00:30:30.334Z,9.50
2017-09-16T00:32:57.827Z,9.50
2017-09-16T00:35:25.338Z,9.50
2017-09-16T00:37:52.825Z,9.40
2017-09-16T00:40:20.334Z,9.40
2017-09-16T00:42:47.826Z,9.30
2017-09-16T00:45:15.330Z,9.20
2017-09-16T00:47:42.822Z,9.20
2017-09-16T00:50:10.335Z,9.10
2017-09-16T00:52:37.822Z,9.10
2017-09-16T00:55:05.335Z,9.10
2017-09-16T00:57:32.828Z,9.10
2017-09-16T01:00:00.318Z,9.10
2017-09-16T01:02:27.827Z,9.10
2017-09-16T01:04:55.306Z,9.10
2017-09-16T01:07:22.814Z,9.10
2017-09-16T01:09:50.306Z,9.10
2017-09-16T01:12:17.818Z,9.10
2017-09-16T01:14:45.309Z,9.10
2017-09-16T01:17:12.822Z,9.20
2017-09-16T01:19:40.310Z,9.10
2017-09-16T01:22:07.837Z,9.10
2017-09-16T01:24:35.326Z,9.20
2017-09-16T01:27:03.598Z,9.00
2017-09-16T01:29:31.087Z,9.00
2017-09-16T01:31:58.606Z,9.00
2017-09-16T01:34:26.091Z,9.00
2017-09-16T01:36:53.615Z,9.00
2017-09-16T01:39:21.108Z,8.90
2017-09-16T01:41:48.615Z,8.80
2017-09-16T01:44:16.106Z,8.80
2017-09-16T01:46:43.622Z,8.80
2017-09-16T01:49:11.107Z,8.80
2017-09-16T01:51:38.596Z,8.80
2017-09-16T01:54:06.102Z,8.80
2017-09-16T01:56:33.590Z,8.80
2017-09-16T01:59:01.098Z,8.80
2017-09-16T02:01:28.587Z,8.70
2017-09-16T02:03:56.099Z,8.70
2017-09-16T02:06:23.614Z,8.60
2017-09-16T02:08:51.118Z,8.60
2017-09-16T02:11:18.609Z,8.60
2017-09-16T02:13:46.118Z,8.60
2017-09-16T02:16:13.597Z,8.50
2017-09-16T02:18:41.122Z,8.50
2017-09-16T02:21:08.602Z,8.50
2017-09-16T02:23:36.110Z,8.50
2017-09-16T02:26:03.610Z,8.50
2017-09-16T02:28:31.114Z,8.40
2017-09-16T02:30:58.603Z,8.50
2017-09-16T02:33:26.882Z,8.40
2017-09-16T02:35:54.376Z,8.40
2017-09-16T02:38:21.900Z,8.40
2017-09-16T02:40:49.406Z,8.40
2017-09-16T02:43:16.899Z,8.40
2017-09-16T02:45:44.411Z,8.40
2017-09-16T02:48:11.903Z,8.40
2017-09-16T02:50:39.414Z,8.40
2017-09-16T02:53:06.911Z,8.40
2017-09-16T02:55:34.427Z,8.40
2017-09-16T02:58:01.919Z,8.40
2017-09-16T03:00:29.431Z,8.30
2017-09-16T03:02:57.687Z,8.20
2017-09-16T03:05:25.207Z,8.30
2017-09-16T03:07:52.698Z,8.20
2017-09-16T03:10:20.211Z,8.20
2017-09-16T03:12:47.698Z,8.10
2017-09-16T03:15:15.219Z,8.10
2017-09-16T03:17:42.719Z,8.10
2017-09-16T03:20:10.239Z,8.10
2017-09-16T03:22:37.747Z,8.00
2017-09-16T03:25:05.262Z,8.00
2017-09-16T03:27:32.754Z,8.00
2017-09-16T03:30:00.273Z,8.10
2017-09-16T03:32:27.762Z,8.00
2017-09-16T03:34:55.258Z,8.00
2017-09-16T03:37:23.534Z,7.90
2017-09-16T03:39:51.790Z,7.90
2017-09-16T03:42:19.306Z,7.90
2017-09-16T03:44:46.802Z,7.90
2017-09-16T03:47:14.311Z,7.90
2017-09-16T03:49:41.803Z,7.90
2017-09-16T03:52:09.323Z,7.90
2017-09-16T03:54:36.810Z,7.90
2017-09-16T03:57:04.318Z,7.90
2017-09-16T03:59:31.806Z,7.90
2017-09-16T04:02:11.390Z,8.00
2017-09-16T04:04:38.886Z,8.00
2017-09-16T04:07:07.197Z,8.20
2017-09-16T04:09:34.682Z,8.10
2017-09-16T04:12:02.195Z,8.20
2017-09-16T04:14:29.678Z,8.20
2017-09-16T04:16:57.202Z,8.20
2017-09-16T04:19:24.694Z,8.20
2017-09-16T04:21:52.208Z,8.20
2017-09-16T04:24:19.698Z,8.20
2017-09-16T04:26:47.219Z,8.30
2017-09-16T04:29:15.470Z,8.30
2017-09-16T04:31:42.958Z,8.30
2017-09-16T04:34:10.485Z,8.30
2017-09-16T04:36:37.965Z,8.30
2017-09-16T04:39:05.479Z,8.30
2017-09-16T04:41:32.970Z,8.30
2017-09-16T04:44:00.479Z,8.30
2017-09-16T04:46:27.970Z,8.30
2017-09-16T04:48:55.479Z,8.40
2017-09-16T04:51:22.970Z,8.30
2017-09-16T04:53:50.493Z,8.30
2017-09-16T04:56:17.983Z,8.30
2017-09-16T04:58:45.508Z,8.30
2017-09-16T05:01:12.990Z,8.20
2017-09-16T05:03:40.478Z,8.20
2017-09-16T05:06:07.994Z,8.20
2017-09-16T05:08:35.497Z,8.20
2017-09-16T05:11:02.986Z,8.20
2017-09-16T05:13:31.263Z,8.20
2017-09-16T05:15:58.754Z,8.10
2017-09-16T05:18:26.238Z,8.10
2017-09-16T05:20:54.514Z,8.10
2017-09-16T05:23:22.001Z,8.20
2017-09-16T05:25:49.514Z,8.20
2017-09-16T05:28:17.002Z,8.20
2017-09-16T05:30:44.486Z,8.10
2017-09-16T05:33:11.994Z,8.10
2017-09-16T05:35:40.355Z,8.10
2017-09-16T05:38:07.866Z,8.10
2017-09-16T05:40:35.353Z,8.20
2017-09-16T05:43:02.838Z,8.20
2017-09-16T05:45:30.359Z,8.20
2017-09-16T05:47:57.850Z,8.20
2017-09-16T05:50:25.362Z,8.20
2017-09-16T05:52:53.624Z,8.20
2017-09-16T05:55:21.114Z,8.20
2017-09-16T05:57:49.386Z,8.30
2017-09-16T06:00:16.878Z,8.30
2017-09-16T06:02:44.391Z,8.30
2017-09-16T06:05:11.879Z,8.30
2017-09-16T06:07:39.371Z,8.40
2017-09-16T06:10:07.647Z,8.30
2017-09-16T06:12:35.138Z,8.30
2017-09-16T06:15:03.411Z,8.30
2017-09-16T06:17:30.898Z,8.30
2017-09-16T06:19:58.379Z,8.40
2017-09-16T06:22:25.898Z,8.40
2017-09-16T06:24:53.391Z,8.50
2017-09-16T06:27:20.901Z,8.50
2017-09-16T06:29:48.391Z,8.60
2017-09-16T06:32:15.886Z,8.70
2017-09-16T06:34:43.402Z,8.70
2017-09-16T06:37:10.903Z,8.80
2017-09-16T06:39:38.435Z,8.90
2017-09-16T06:42:05.927Z,9.00
2017-09-16T06:44:33.423Z,9.00
2017-09-16T06:47:01.703Z,9.20
2017-09-16T06:49:29.959Z,9.20
2017-09-16T06:51:57.471Z,9.20
2017-09-16T06:54:24.963Z,9.20
2017-09-16T06:56:52.466Z,9.20
2017-09-16T06:59:19.986Z,9.30
2017-09-16T07:01:47.479Z,9.30
2017-09-16T07:04:14.995Z,9.40
2017-09-16T07:06:42.492Z,9.40
2017-09-16T07:09:10.002Z,9.40
2017-09-16T07:11:37.514Z,9.40
2017-09-16T07:14:05.003Z,9.50
2017-09-16T07:16:33.298Z,9.60
2017-09-16T07:19:00.790Z,9.60
2017-09-16T07:21:28.293Z,9.50
2017-09-16T07:23:55.811Z,9.60
2017-09-16T07:26:24.066Z,9.60
2017-09-16T07:28:51.582Z,9.60
2017-09-16T07:31:19.091Z,9.60
2017-09-16T07:33:47.355Z,9.50
2017-09-16T07:36:14.870Z,9.40
2017-09-16T07:38:42.363Z,9.50
2017-09-16T07:41:09.890Z,9.60
2017-09-16T07:43:37.386Z,9.70
2017-09-16T07:46:04.883Z,9.80
2017-09-16T07:48:32.399Z,9.90
2017-09-16T07:50:59.903Z,10.00
2017-09-16T07:53:27.402Z,10.10
2017-09-16T07:55:54.927Z,10.20
2017-09-16T07:58:22.426Z,10.30
2017-09-16T08:00:49.955Z,10.30
2017-09-16T08:03:17.455Z,10.40
2017-09-16T08:05:44.951Z,10.50
2017-09-16T08:08:12.479Z,10.40
2017-09-16T08:10:40.752Z,10.40
2017-09-16T08:13:08.282Z,10.30
2017-09-16T08:15:35.779Z,10.40
2017-09-16T08:18:04.042Z,10.50
2017-09-16T08:20:31.563Z,10.50
2017-09-16T08:22:59.068Z,10.60
2017-09-16T08:25:27.354Z,10.70
2017-09-16T08:27:54.877Z,10.60
2017-09-16T08:30:22.380Z,10.70
2017-09-16T08:32:49.891Z,10.90
2017-09-16T08:35:17.415Z,11.00
2017-09-16T08:37:44.919Z,11.20
2017-09-16T08:40:12.423Z,11.50
2017-09-16T08:42:39.951Z,11.70
2017-09-16T08:45:08.210Z,12.00
2017-09-16T08:47:35.735Z,12.00
2017-09-16T08:50:03.251Z,12.10
2017-09-16T08:52:31.519Z,12.60
2017-09-16T08:54:59.039Z,12.60
2017-09-16T08:57:26.558Z,12.90
2017-09-16T08:59:54.054Z,13.20
2017-09-16T09:02:21.583Z,13.60
2017-09-16T09:04:49.090Z,14.10
2017-09-16T09:07:16.611Z,14.50
2017-09-16T09:09:44.107Z,14.80
2017-09-16T09:12:11.607Z,15.00
2017-09-16T09:14:39.135Z,15.30
2017-09-16T09:17:06.627Z,15.60
2017-09-16T09:19:34.122Z,16.00
2017-09-16T09:22:01.654Z,16.60
2017-09-16T09:24:29.142Z,17.00
2017-09-16T09:26:56.654Z,17.90
2017-09-16T09:29:24.917Z,19.20
2017-09-16T09:31:53.171Z,20.30
2017-09-16T09:34:20.692Z,20.20
2017-09-16T09:36:48.184Z,22.10
2017-09-16T09:39:15.678Z,24.20
2017-09-16T09:41:43.962Z,27.50
2017-09-16T09:44:11.459Z,27.40
2017-09-16T09:46:38.951Z,29.20
2017-09-16T09:49:06.475Z,30.90
2017-09-16T09:51:33.973Z,32.30
2017-09-16T09:54:01.470Z,33.10
2017-09-16T09:56:28.987Z,33.90
2017-09-16T09:58:57.246Z,36.10
2017-09-16T10:01:24.738Z,36.00
2017-09-16T10:03:52.251Z,37.20
2017-09-16T10:06:19.742Z,38.40
2017-09-16T10:08:47.254Z,38.50
2017-09-16T10:11:14.746Z,39.20
2017-09-16T10:13:42.242Z,39.90
2017-09-16T10:16:09.764Z,40.80
2017-09-16T10:18:37.254Z,41.10
2017-09-16T10:21:04.749Z,40.20
2017-09-16T10:23:32.270Z,39.20
2017-09-16T10:25:59.759Z,39.60
2017-09-16T10:28:27.251Z,40.00
2017-09-16T10:30:54.766Z,40.50
2017-09-16T10:33:22.259Z,40.90
2017-09-16T10:35:49.780Z,40.30
2017-09-16T10:38:17.271Z,39.50
2017-09-16T10:40:44.766Z,38.80
2017-09-16T10:43:13.059Z,39.90
2017-09-16T10:45:40.555Z,40.00
2017-09-16T10:48:08.043Z,41.30
2017-09-16T10:50:35.563Z,39.70
2017-09-16T10:53:03.058Z,37.20
2017-09-16T10:55:30.562Z,35.20
2017-09-16T10:57:58.075Z,33.60
2017-09-16T11:00:25.562Z,31.80
2017-09-16T11:02:53.055Z,30.40
2017-09-16T11:05:20.571Z,29.10
2017-09-16T11:07:48.064Z,28.80
2017-09-16T11:10:15.559Z,28.40
2017-09-16T11:12:43.075Z,27.30
2017-09-16T11:15:10.566Z,26.50
2017-09-16T11:17:38.063Z,25.80
2017-09-16T11:20:05.574Z,24.70
2017-09-16T11:22:33.063Z,23.70
2017-09-16T11:25:01.322Z,22.10
2017-09-16T11:27:28.898Z,22.00
2017-09-16T11:29:57.166Z,21.00
2017-09-16T11:32:24.674Z,20.90
2017-09-16T11:34:52.190Z,20.50
2017-09-16T11:37:20.454Z,19.70
2017-09-16T11:39:47.949Z,19.60
2017-09-16T11:42:15.470Z,19.30
2017-09-16T11:44:42.966Z,18.90
2017-09-16T11:47:10.515Z,18.50
2017-09-16T11:49:38.013Z,18.00
2017-09-16T11:52:05.536Z,17.60
2017-09-16T11:54:33.652Z,17.30
2017-09-16T11:57:01.150Z,16.80
2017-09-16T11:59:29.403Z,16.10
2017-09-16T12:01:56.918Z,16.00
2017-09-16T12:04:24.420Z,15.60
2017-09-16T12:06:51.919Z,15.30
2017-09-16T12:09:19.450Z,15.00
2017-09-16T12:11:46.938Z,14.80
2017-09-16T12:14:14.470Z,14.80
2017-09-16T12:16:42.030Z,14.70
2017-09-16T12:19:09.526Z,14.70
2017-09-16T12:21:37.046Z,14.70
2017-09-16T12:24:04.566Z,14.90
2017-09-16T12:26:32.060Z,15.20
2017-09-16T12:28:59.549Z,15.70
2017-09-16T12:31:27.058Z,16.20
2017-09-16T12:33:54.546Z,16.90
2017-09-16T12:36:23.003Z,18.30
2017-09-16T12:38:50.522Z,18.30
2017-09-16T12:41:18.011Z,18.80
2017-09-16T12:43:45.498Z,19.40
2017-09-16T12:46:13.775Z,19.80
2017-09-16T12:48:42.035Z,19.70
2017-09-16T12:51:09.527Z,19.70
2017-09-16T12:53:37.044Z,20.40
2017-09-16T12:56:04.538Z,21.30
2017-09-16T12:58:32.030Z,21.70
2017-09-16T13:00:59.538Z,21.90
2017-09-16T13:03:27.794Z,22.40
2017-09-16T13:05:55.291Z,22.30
2017-09-16T13:08:22.830Z,22.80
2017-09-16T13:10:51.083Z,23.00
2017-09-16T13:13:18.571Z,23.00
2017-09-16T13:15:46.851Z,22.70
2017-09-16T13:18:15.110Z,23.20
2017-09-16T13:20:43.366Z,23.80
2017-09-16T13:23:10.891Z,23.80
2017-09-16T13:25:38.378Z,24.80
2017-09-16T13:28:05.866Z,24.20
2017-09-16T13:30:34.143Z,23.00
2017-09-16T13:33:02.398Z,22.10
2017-09-16T13:35:29.886Z,22.10
2017-09-16T13:37:58.163Z,21.00
2017-09-16T13:40:26.418Z,20.90
2017-09-16T13:42:54.678Z,21.60
2017-09-16T13:45:22.197Z,21.60
2017-09-16T13:47:49.706Z,22.30
2017-09-16T13:50:17.203Z,23.20
2017-09-16T13:52:44.719Z,22.90
2017-09-16T13:55:12.210Z,22.60
2017-09-16T13:57:39.707Z,22.10
2017-09-16T14:00:07.218Z,21.70
2017-09-16T14:02:35.478Z,21.30
2017-09-16T14:05:02.970Z,21.20
2017-09-16T14:07:30.483Z,21.30
2017-09-16T14:09:58.742Z,22.00
2017-09-16T14:12:26.231Z,22.00
2017-09-16T14:14:54.510Z,22.60
2017-09-16T14:17:22.766Z,23.10
2017-09-16T14:19:50.263Z,23.00
2017-09-16T14:22:17.774Z,22.70
2017-09-16T14:24:45.263Z,22.80
2017-09-16T14:27:13.522Z,22.50
2017-09-16T14:29:41.038Z,22.40
2017-09-16T14:32:08.530Z,22.30
2017-09-16T14:34:36.022Z,21.70
2017-09-16T14:37:04.319Z,21.60
2017-09-16T14:39:31.806Z,21.60
2017-09-16T14:41:59.294Z,22.00
2017-09-16T14:44:26.807Z,21.60
2017-09-16T14:46:54.298Z,21.10
2017-09-16T14:49:21.790Z,20.90
2017-09-16T14:51:50.075Z,20.80
2017-09-16T14:54:17.586Z,20.80
2017-09-16T14:56:45.074Z,20.90
2017-09-16T14:59:13.355Z,21.00
2017-09-16T15:01:41.610Z,21.00
2017-09-16T15:04:09.099Z,21.00
2017-09-16T15:06:36.639Z,21.10
2017-09-16T15:09:04.118Z,21.10
2017-09-16T15:11:31.607Z,21.10
2017-09-16T15:13:59.127Z,21.10
2017-09-16T15:16:27.382Z,21.10
2017-09-16T15:18:54.875Z,21.10
2017-09-16T15:21:22.391Z,21.20
2017-09-16T15:23:49.890Z,21.00
2017-09-16T15:26:17.378Z,21.00
2017-09-16T15:28:44.897Z,20.90
2017-09-16T15:31:13.181Z,20.90
2017-09-16T15:33:41.442Z,21.00
2017-09-16T15:36:09.726Z,21.10
2017-09-16T15:38:37.982Z,21.20
2017-09-16T15:41:05.494Z,21.10
2017-09-16T15:43:32.989Z,21.20
2017-09-16T15:46:00.477Z,21.10
2017-09-16T15:48:28.758Z,20.80
2017-09-16T15:50:56.245Z,20.70
2017-09-16T15:53:23.762Z,20.60
2017-09-16T15:55:52.030Z,20.30
2017-09-16T15:58:20.295Z,20.00
2017-09-16T16:00:47.807Z,19.90
2017-09-16T16:03:15.305Z,19.60
2017-09-16T16:05:42.795Z,19.30
2017-09-16T16:08:10.309Z,19.10
2017-09-16T16:10:37.803Z,18.90
2017-09-16T16:13:05.306Z,18.70
2017-09-16T16:15:32.818Z,18.50
2017-09-16T16:18:01.100Z,18.40
2017-09-16T16:20:29.346Z,18.40
2017-09-16T16:22:56.863Z,18.30
2017-09-16T16:25:24.350Z,18.40
2017-09-16T16:27:51.850Z,18.20
2017-09-16T16:30:20.153Z,18.10
2017-09-16T16:32:47.646Z,18.10
2017-09-16T16:35:15.158Z,18.00
2017-09-16T16:37:42.669Z,17.90
2017-09-16T16:40:10.158Z,17.90
2017-09-16T16:42:38.434Z,17.70
2017-09-16T16:45:06.682Z,17.20
2017-09-16T16:47:34.171Z,17.20
2017-09-16T16:50:02.455Z,16.20
2017-09-16T16:52:29.947Z,16.20
2017-09-16T16:54:57.439Z,16.00
2017-09-16T16:57:24.950Z,15.80
2017-09-16T16:59:52.446Z,15.60
2017-09-16T17:02:19.954Z,15.50
2017-09-16T17:04:47.442Z,15.50
2017-09-16T17:07:15.699Z,15.30
2017-09-16T17:09:43.542Z,15.30
2017-09-16T17:12:11.794Z,15.10
2017-09-16T17:14:39.283Z,15.10
2017-09-16T17:17:06.802Z,14.90
2017-09-16T17:19:34.295Z,14.70
2017-09-16T17:22:01.810Z,14.70
2017-09-16T17:24:29.299Z,14.60
2017-09-16T17:26:57.553Z,14.40
2017-09-16T17:29:25.070Z,14.40
2017-09-16T17:31:52.562Z,14.40
2017-09-16T17:34:20.054Z,14.30
2017-09-16T17:36:48.331Z,14.10
2017-09-16T17:39:16.586Z,14.10
2017-09-16T17:41:44.103Z,14.10
2017-09-16T17:44:11.594Z,14.00
2017-09-16T17:46:39.096Z,14.00
2017-09-16T17:49:06.610Z,14.00
2017-09-16T17:51:34.102Z,13.80
2017-09-16T17:54:02.354Z,13.70
2017-09-16T17:56:29.866Z,13.60
2017-09-16T17:58:57.358Z,13.60
2017-09-16T18:01:24.850Z,13.60
2017-09-16T18:03:53.127Z,13.60
2017-09-16T18:06:21.383Z,13.60
2017-09-16T18:08:48.900Z,13.60
2017-09-16T18:11:16.396Z,13.50
2017-09-16T18:13:43.887Z,13.50
2017-09-16T18:16:11.407Z,13.50
2017-09-16T18:18:38.895Z,13.50
2017-09-16T18:21:07.150Z,13.40
2017-09-16T18:23:34.669Z,13.30
2017-09-16T18:26:02.162Z,13.30
2017-09-16T18:28:29.654Z,13.30
2017-09-16T18:30:57.166Z,13.20
2017-09-16T18:33:24.666Z,13.20
2017-09-16T18:35:52.154Z,13.20
2017-09-16T18:38:19.667Z,13.20
2017-09-16T18:40:47.922Z,13.30
2017-09-16T18:43:15.419Z,13.20
2017-09-16T18:45:42.926Z,13.30
2017-09-16T18:48:10.416Z,13.30
2017-09-16T18:50:38.693Z,13.30
2017-09-16T18:53:06.985Z,13.30
2017-09-16T18:55:34.478Z,13.20
2017-09-16T18:58:01.981Z,13.30
2017-09-16T19:00:30.238Z,13.20
2017-09-16T19:02:57.732Z,13.20
2017-09-16T19:05:26.010Z,13.20
2017-09-16T19:07:53.502Z,13.20
2017-09-16T19:10:20.990Z,13.20
2017-09-16T19:12:48.503Z,13.10
2017-09-16T19:15:16.003Z,13.20
2017-09-16T19:17:43.490Z,13.10
2017-09-16T19:20:11.779Z,13.00
2017-09-16T19:22:39.274Z,13.00
2017-09-16T19:25:06.772Z,13.00
2017-09-16T19:27:34.281Z,13.00
2017-09-16T19:30:01.776Z,13.00
2017-09-16T19:32:29.278Z,13.00
2017-09-16T19:34:56.791Z,13.00
2017-09-16T19:37:24.288Z,12.90
2017-09-16T19:39:51.782Z,12.90
2017-09-16T19:42:19.290Z,12.90
2017-09-16T19:44:47.546Z,12.90
2017-09-16T19:47:15.035Z,12.90
2017-09-16T19:49:42.547Z,12.90
2017-09-16T19:52:10.034Z,12.90
2017-09-16T19:54:38.286Z,12.90
2017-09-16T19:57:05.903Z,12.80
2017-09-16T19:59:33.394Z,12.80
2017-09-16T20:02:00.894Z,12.80
2017-09-16T20:04:29.174Z,12.70
2017-09-16T20:06:57.434Z,12.60
2017-09-16T20:09:24.928Z,12.60
2017-09-16T20:11:52.446Z,12.50
2017-09-16T20:14:19.950Z,12.40
2017-09-16T20:16:47.438Z,12.40
2017-09-16T20:19:14.946Z,12.40
2017-09-16T20:21:42.438Z,12.30
2017-09-16T20:24:09.926Z,12.30
2017-09-16T20:26:37.438Z,12.20
2017-09-16T20:29:04.930Z,12.20
2017-09-16T20:31:32.418Z,12.20
2017-09-16T20:34:00.700Z,12.20
2017-09-16T20:36:28.955Z,12.20
2017-09-16T20:38:56.446Z,12.10
2017-09-16T20:41:23.962Z,12.10
2017-09-16T20:43:51.451Z,12.10
2017-09-16T20:46:19.716Z,11.90
2017-09-16T20:48:47.226Z,11.90
2017-09-16T20:51:14.714Z,11.80
2017-09-16T20:53:42.222Z,11.80
2017-09-16T20:56:09.714Z,11.80
2017-09-16T20:58:37.227Z,11.80
2017-09-16T21:01:05.482Z,11.80
2017-09-16T21:03:32.998Z,11.70
2017-09-16T21:06:00.486Z,11.70
2017-09-16T21:08:27.999Z,11.70
2017-09-16T21:10:55.494Z,11.70
2017-09-16T21:13:23.012Z,11.70
2017-09-16T21:15:50.513Z,11.70
2017-09-16T21:18:18.027Z,11.70
2017-09-16T21:20:45.522Z,11.70
2017-09-16T21:23:13.044Z,11.70
2017-09-16T21:25:40.538Z,11.70
2017-09-16T21:28:08.059Z,11.70
2017-09-16T21:30:35.554Z,11.70
2017-09-16T21:33:03.067Z,11.70
2017-09-16T21:35:30.583Z,11.70
2017-09-16T21:37:58.095Z,11.70
2017-09-16T21:40:25.587Z,11.70
2017-09-16T21:42:53.098Z,11.70
2017-09-16T21:45:20.591Z,11.70
2017-09-16T21:47:48.276Z,11.70
2017-09-16T21:50:15.964Z,11.70
2017-09-16T21:52:44.514Z,11.60
2017-09-16T21:55:12.337Z,11.60
2017-09-16T21:57:41.038Z,11.60
2017-09-16T22:00:09.482Z,11.60
2017-09-16T22:02:37.837Z,11.50
2017-09-16T22:05:05.710Z,11.50
2017-09-16T22:07:33.678Z,11.50
2017-09-16T22:10:01.339Z,11.50
2017-09-16T22:12:29.055Z,11.40
2017-09-16T22:14:56.583Z,11.40
2017-09-16T22:17:24.283Z,11.30
2017-09-16T22:19:52.759Z,11.30
2017-09-16T22:22:20.393Z,11.20
2017-09-16T22:24:48.772Z,11.30
2017-09-16T22:27:16.377Z,11.20
2017-09-16T22:29:44.090Z,11.20
2017-09-16T22:32:12.391Z,11.10
2017-09-16T22:34:40.790Z,11.00
2017-09-16T22:37:08.475Z,11.00
2017-09-16T22:39:36.257Z,11.00
2017-09-16T22:42:03.971Z,11.00
2017-09-16T22:44:31.490Z,11.00
2017-09-16T22:46:59.870Z,10.90
2017-09-16T22:49:27.390Z,10.90
2017-09-16T22:51:54.915Z,10.80
2017-09-16T22:54:23.172Z,10.70
2017-09-16T22:56:51.458Z,10.70
2017-09-16T22:59:19.718Z,10.70
2017-09-16T23:01:47.240Z,10.70
2017-09-16T23:04:14.725Z,10.70
2017-09-16T23:06:42.238Z,10.70
2017-09-16T23:09:09.726Z,10.60
2017-09-16T23:11:37.246Z,10.60
2017-09-16T23:14:04.740Z,10.50
2017-09-16T23:16:32.254Z,10.50
2017-09-16T23:19:00.511Z,10.40
2017-09-16T23:21:28.006Z,10.40
2017-09-16T23:23:55.516Z,10.40
2017-09-16T23:26:23.263Z,10.40
2017-09-16T23:28:50.775Z,10.40
2017-09-16T23:31:18.265Z,10.40
2017-09-16T23:33:45.776Z,10.40
2017-09-16T23:36:14.044Z,10.50
2017-09-16T23:38:41.558Z,10.50
2017-09-16T23:41:09.052Z,10.50
2017-09-16T23:43:36.561Z,10.60
2017-09-16T23:46:04.053Z,10.60
2017-09-16T23:48:31.562Z,10.60
2017-09-16T23:50:59.050Z,10.60
2017-09-16T23:53:26.562Z,10.60
2017-09-16T23:55:54.823Z,10.70
2017-09-16T23:58:23.126Z,10.70
